sensor_id;sensor_type;location;lat;lon;timestamp;P1;durP1;ratioP1;P2;durP2;ratioP2
32786;SDS011;19139;49.372;8.580;2024-02-21T00:00:06;15.73;;;7.00;;
32786;SDS011;19139;49.372;8.580;2024-02-21T00:02:33;16.57;;;7.60;;
32786;SDS011;19139;49.372;8.580;2024-02-21T00:05:00;19.87;;;7.03;;
32786;SDS011;19139;49.372;8.580;2024-02-21T00:07:27;17.93;;;7.20;;
32786;SDS011;19139;49.372;8.580;2024-02-21T00:09:54;12.63;;;7.20;;
32786;SDS011;19139;49.372;8.580;2024-02-21T00:12:21;15.83;;;6.53;;
32786;SDS011;19139;49.372;8.580;2024-02-21T00:14:48;15.83;;;6.97;;
32786;SDS011;19139;49.372;8.580;2024-02-21T00:17:14;15.17;;;6.67;;
32786;SDS011;19139;49.372;8.580;2024-02-21T00:19:41;19.13;;;6.43;;
32786;SDS011;19139;49.372;8.580;2024-02-21T00:22:08;14.63;;;6.83;;
32786;SDS011;19139;49.372;8.580;2024-02-21T00:24:34;15.77;;;7.03;;
32786;SDS011;19139;49.372;8.580;2024-02-21T00:27:01;17.33;;;7.13;;
32786;SDS011;19139;49.372;8.580;2024-02-21T00:29:28;18.57;;;6.93;;
32786;SDS011;19139;49.372;8.580;2024-02-21T00:31:55;12.57;;;5.93;;
32786;SDS011;19139;49.372;8.580;2024-02-21T00:34:22;13.50;;;6.93;;
32786;SDS011;19139;49.372;8.580;2024-02-21T00:36:48;18.20;;;6.97;;
32786;SDS011;19139;49.372;8.580;2024-02-21T00:39:16;12.90;;;7.00;;
32786;SDS011;19139;49.372;8.580;2024-02-21T00:41:43;12.40;;;5.87;;
32786;SDS011;19139;49.372;8.580;2024-02-21T00:44:09;18.47;;;6.70;;
32786;SDS011;19139;49.372;8.580;2024-02-21T00:46:36;13.97;;;7.20;;
32786;SDS011;19139;49.372;8.580;2024-02-21T00:49:05;18.77;;;6.73;;
32786;SDS011;19139;49.372;8.580;2024-02-21T00:51:32;13.17;;;6.50;;
32786;SDS011;19139;49.372;8.580;2024-02-21T00:53:58;13.30;;;6.50;;
32786;SDS011;19139;49.372;8.580;2024-02-21T00:56:25;17.73;;;5.70;;
32786;SDS011;19139;49.372;8.580;2024-02-21T00:58:52;15.23;;;7.60;;
32786;SDS011;19139;49.372;8.580;2024-02-21T01:01:22;17.20;;;6.60;;
32786;SDS011;19139;49.372;8.580;2024-02-21T01:03:50;15.90;;;6.73;;
32786;SDS011;19139;49.372;8.580;2024-02-21T01:06:19;10.30;;;5.37;;
32786;SDS011;19139;49.372;8.580;2024-02-21T01:08:46;12.30;;;6.47;;
32786;SDS011;19139;49.372;8.580;2024-02-21T01:11:14;17.40;;;6.57;;
32786;SDS011;19139;49.372;8.580;2024-02-21T01:13:42;12.17;;;6.30;;
32786;SDS011;19139;49.372;8.580;2024-02-21T01:16:09;11.93;;;6.23;;
32786;SDS011;19139;49.372;8.580;2024-02-21T01:18:39;12.83;;;6.53;;
32786;SDS011;19139;49.372;8.580;2024-02-21T01:21:06;17.87;;;6.27;;
32786;SDS011;19139;49.372;8.580;2024-02-21T01:23:34;10.83;;;6.03;;
32786;SDS011;19139;49.372;8.580;2024-02-21T01:26:01;11.27;;;6.60;;
32786;SDS011;19139;49.372;8.580;2024-02-21T01:28:28;13.67;;;6.70;;
32786;SDS011;19139;49.372;8.580;2024-02-21T01:30:55;12.63;;;5.73;;
32786;SDS011;19139;49.372;8.580;2024-02-21T01:33:22;12.00;;;5.87;;
32786;SDS011;19139;49.372;8.580;2024-02-21T01:35:49;11.60;;;6.07;;
32786;SDS011;19139;49.372;8.580;2024-02-21T01:38:16;17.17;;;6.73;;
32786;SDS011;19139;49.372;8.580;2024-02-21T01:40:43;14.37;;;6.23;;
32786;SDS011;19139;49.372;8.580;2024-02-21T01:43:16;16.40;;;6.27;;
32786;SDS011;19139;49.372;8.580;2024-02-21T01:45:54;13.77;;;6.10;;
32786;SDS011;19139;49.372;8.580;2024-02-21T01:48:22;11.67;;;5.70;;
32786;SDS011;19139;49.372;8.580;2024-02-21T01:50:50;15.00;;;6.20;;
32786;SDS011;19139;49.372;8.580;2024-02-21T01:53:18;17.97;;;7.07;;
32786;SDS011;19139;49.372;8.580;2024-02-21T01:55:47;18.60;;;6.83;;
32786;SDS011;19139;49.372;8.580;2024-02-21T01:58:15;13.07;;;6.07;;
32786;SDS011;19139;49.372;8.580;2024-02-21T02:00:42;11.77;;;5.83;;
32786;SDS011;19139;49.372;8.580;2024-02-21T02:03:10;13.57;;;6.23;;
32786;SDS011;19139;49.372;8.580;2024-02-21T02:05:48;16.57;;;7.23;;
32786;SDS011;19139;49.372;8.580;2024-02-21T02:08:16;11.97;;;6.23;;
32786;SDS011;19139;49.372;8.580;2024-02-21T02:10:46;14.07;;;5.67;;
32786;SDS011;19139;49.372;8.580;2024-02-21T02:13:12;12.47;;;6.73;;
32786;SDS011;19139;49.372;8.580;2024-02-21T02:15:40;13.90;;;5.97;;
32786;SDS011;19139;49.372;8.580;2024-02-21T02:18:08;16.90;;;6.60;;
32786;SDS011;19139;49.372;8.580;2024-02-21T02:20:35;17.43;;;6.20;;
32786;SDS011;19139;49.372;8.580;2024-02-21T02:23:10;16.80;;;6.37;;
32786;SDS011;19139;49.372;8.580;2024-02-21T02:25:38;12.47;;;6.77;;
32786;SDS011;19139;49.372;8.580;2024-02-21T02:28:06;13.73;;;6.00;;
32786;SDS011;19139;49.372;8.580;2024-02-21T02:30:33;11.63;;;6.03;;
32786;SDS011;19139;49.372;8.580;2024-02-21T02:33:03;14.30;;;6.63;;
32786;SDS011;19139;49.372;8.580;2024-02-21T02:35:31;10.77;;;5.47;;
32786;SDS011;19139;49.372;8.580;2024-02-21T02:37:58;15.50;;;7.30;;
32786;SDS011;19139;49.372;8.580;2024-02-21T02:40:24;13.27;;;7.13;;
32786;SDS011;19139;49.372;8.580;2024-02-21T02:42:51;18.17;;;6.43;;
32786;SDS011;19139;49.372;8.580;2024-02-21T02:45:21;14.70;;;7.17;;
32786;SDS011;19139;49.372;8.580;2024-02-21T02:47:55;14.40;;;6.07;;
32786;SDS011;19139;49.372;8.580;2024-02-21T02:50:23;14.20;;;7.60;;
32786;SDS011;19139;49.372;8.580;2024-02-21T02:52:51;18.27;;;6.80;;
32786;SDS011;19139;49.372;8.580;2024-02-21T02:55:18;15.97;;;6.67;;
32786;SDS011;19139;49.372;8.580;2024-02-21T02:57:45;12.20;;;6.07;;
32786;SDS011;19139;49.372;8.580;2024-02-21T03:00:12;13.70;;;6.23;;
32786;SDS011;19139;49.372;8.580;2024-02-21T03:02:41;12.80;;;6.37;;
32786;SDS011;19139;49.372;8.580;2024-02-21T03:05:13;13.40;;;6.60;;
32786;SDS011;19139;49.372;8.580;2024-02-21T03:07:42;18.10;;;7.00;;
32786;SDS011;19139;49.372;8.580;2024-02-21T03:10:09;16.20;;;6.93;;
32786;SDS011;19139;49.372;8.580;2024-02-21T03:12:37;14.70;;;6.30;;
32786;SDS011;19139;49.372;8.580;2024-02-21T03:15:05;18.03;;;5.97;;
32786;SDS011;19139;49.372;8.580;2024-02-21T03:17:32;20.03;;;7.63;;
32786;SDS011;19139;49.372;8.580;2024-02-21T03:20:02;12.83;;;6.03;;
32786;SDS011;19139;49.372;8.580;2024-02-21T03:22:35;14.30;;;7.43;;
32786;SDS011;19139;49.372;8.580;2024-02-21T03:25:05;18.23;;;7.23;;
32786;SDS011;19139;49.372;8.580;2024-02-21T03:27:33;16.60;;;6.23;;
32786;SDS011;19139;49.372;8.580;2024-02-21T03:30:00;11.40;;;5.90;;
32786;SDS011;19139;49.372;8.580;2024-02-21T03:32:27;11.23;;;7.13;;
32786;SDS011;19139;49.372;8.580;2024-02-21T03:34:55;12.80;;;7.17;;
32786;SDS011;19139;49.372;8.580;2024-02-21T03:37:21;14.50;;;7.00;;
32786;SDS011;19139;49.372;8.580;2024-02-21T03:39:48;12.80;;;5.83;;
32786;SDS011;19139;49.372;8.580;2024-02-21T03:42:15;17.67;;;6.83;;
32786;SDS011;19139;49.372;8.580;2024-02-21T03:44:42;14.37;;;6.20;;
32786;SDS011;19139;49.372;8.580;2024-02-21T03:47:08;13.60;;;6.70;;
32786;SDS011;19139;49.372;8.580;2024-02-21T03:49:37;13.67;;;6.53;;
32786;SDS011;19139;49.372;8.580;2024-02-21T03:52:05;12.77;;;5.77;;
32786;SDS011;19139;49.372;8.580;2024-02-21T03:54:31;12.03;;;5.80;;
32786;SDS011;19139;49.372;8.580;2024-02-21T03:56:58;17.77;;;6.40;;
32786;SDS011;19139;49.372;8.580;2024-02-21T03:59:25;14.10;;;7.27;;
32786;SDS011;19139;49.372;8.580;2024-02-21T04:01:52;11.67;;;6.50;;
32786;SDS011;19139;49.372;8.580;2024-02-21T04:04:19;12.87;;;6.30;;
32786;SDS011;19139;49.372;8.580;2024-02-21T04:06:47;14.67;;;6.83;;
32786;SDS011;19139;49.372;8.580;2024-02-21T04:09:14;18.70;;;6.77;;
32786;SDS011;19139;49.372;8.580;2024-02-21T04:11:41;16.33;;;7.13;;
32786;SDS011;19139;49.372;8.580;2024-02-21T04:14:08;19.50;;;6.83;;
32786;SDS011;19139;49.372;8.580;2024-02-21T04:16:35;13.77;;;6.10;;
32786;SDS011;19139;49.372;8.580;2024-02-21T04:19:01;14.90;;;6.13;;
32786;SDS011;19139;49.372;8.580;2024-02-21T04:21:28;13.77;;;6.10;;
32786;SDS011;19139;49.372;8.580;2024-02-21T04:23:55;16.57;;;6.50;;
32786;SDS011;19139;49.372;8.580;2024-02-21T04:26:22;13.00;;;5.90;;
32786;SDS011;19139;49.372;8.580;2024-02-21T04:28:48;15.87;;;5.60;;
32786;SDS011;19139;49.372;8.580;2024-02-21T04:31:15;15.50;;;6.90;;
32786;SDS011;19139;49.372;8.580;2024-02-21T04:33:42;12.17;;;6.53;;
32786;SDS011;19139;49.372;8.580;2024-02-21T04:36:10;13.73;;;5.87;;
32786;SDS011;19139;49.372;8.580;2024-02-21T04:38:37;13.97;;;5.93;;
32786;SDS011;19139;49.372;8.580;2024-02-21T04:41:05;15.50;;;5.97;;
32786;SDS011;19139;49.372;8.580;2024-02-21T04:43:32;14.87;;;6.13;;
32786;SDS011;19139;49.372;8.580;2024-02-21T04:45:59;16.53;;;6.73;;
32786;SDS011;19139;49.372;8.580;2024-02-21T04:48:26;15.17;;;6.50;;
32786;SDS011;19139;49.372;8.580;2024-02-21T04:50:54;16.70;;;6.77;;
32786;SDS011;19139;49.372;8.580;2024-02-21T04:53:21;16.60;;;7.13;;
32786;SDS011;19139;49.372;8.580;2024-02-21T04:55:48;11.90;;;6.23;;
32786;SDS011;19139;49.372;8.580;2024-02-21T04:58:15;15.67;;;7.07;;
32786;SDS011;19139;49.372;8.580;2024-02-21T05:00:42;15.73;;;6.47;;
32786;SDS011;19139;49.372;8.580;2024-02-21T05:03:10;11.23;;;5.90;;
32786;SDS011;19139;49.372;8.580;2024-02-21T05:05:37;14.10;;;6.53;;
32786;SDS011;19139;49.372;8.580;2024-02-21T05:08:05;16.80;;;7.00;;
32786;SDS011;19139;49.372;8.580;2024-02-21T05:10:32;11.97;;;6.67;;
32786;SDS011;19139;49.372;8.580;2024-02-21T05:12:59;18.43;;;7.40;;
32786;SDS011;19139;49.372;8.580;2024-02-21T05:15:27;13.47;;;6.87;;
32786;SDS011;19139;49.372;8.580;2024-02-21T05:17:54;11.43;;;6.30;;
32786;SDS011;19139;49.372;8.580;2024-02-21T05:20:21;14.27;;;6.77;;
32786;SDS011;19139;49.372;8.580;2024-02-21T05:22:48;15.20;;;6.40;;
32786;SDS011;19139;49.372;8.580;2024-02-21T05:25:15;15.10;;;6.00;;
32786;SDS011;19139;49.372;8.580;2024-02-21T05:27:42;15.17;;;6.30;;
32786;SDS011;19139;49.372;8.580;2024-02-21T05:30:10;11.97;;;6.57;;
32786;SDS011;19139;49.372;8.580;2024-02-21T05:32:37;9.07;;;5.83;;
32786;SDS011;19139;49.372;8.580;2024-02-21T05:35:04;15.07;;;8.13;;
32786;SDS011;19139;49.372;8.580;2024-02-21T05:37:31;11.27;;;6.20;;
32786;SDS011;19139;49.372;8.580;2024-02-21T05:39:59;17.43;;;6.47;;
32786;SDS011;19139;49.372;8.580;2024-02-21T05:42:26;13.17;;;6.53;;
32786;SDS011;19139;49.372;8.580;2024-02-21T05:44:53;12.03;;;6.20;;
32786;SDS011;19139;49.372;8.580;2024-02-21T05:47:20;51.67;;;25.40;;
32786;SDS011;19139;49.372;8.580;2024-02-21T05:49:47;54.27;;;31.33;;
32786;SDS011;19139;49.372;8.580;2024-02-21T05:52:14;45.87;;;26.40;;
32786;SDS011;19139;49.372;8.580;2024-02-21T05:54:42;26.77;;;15.20;;
32786;SDS011;19139;49.372;8.580;2024-02-21T05:57:09;19.60;;;9.73;;
32786;SDS011;19139;49.372;8.580;2024-02-21T05:59:37;17.50;;;7.93;;
32786;SDS011;19139;49.372;8.580;2024-02-21T06:02:06;13.70;;;6.90;;
32786;SDS011;19139;49.372;8.580;2024-02-21T06:04:34;14.70;;;7.20;;
32786;SDS011;19139;49.372;8.580;2024-02-21T06:07:01;17.03;;;7.43;;
32786;SDS011;19139;49.372;8.580;2024-02-21T06:09:28;11.47;;;6.63;;
32786;SDS011;19139;49.372;8.580;2024-02-21T06:11:55;18.10;;;7.27;;
32786;SDS011;19139;49.372;8.580;2024-02-21T06:14:22;11.23;;;5.80;;
32786;SDS011;19139;49.372;8.580;2024-02-21T06:16:49;11.63;;;6.80;;
32786;SDS011;19139;49.372;8.580;2024-02-21T06:19:17;14.20;;;7.23;;
32786;SDS011;19139;49.372;8.580;2024-02-21T06:21:44;12.73;;;6.20;;
32786;SDS011;19139;49.372;8.580;2024-02-21T06:24:11;18.03;;;7.47;;
32786;SDS011;19139;49.372;8.580;2024-02-21T06:26:39;15.57;;;6.50;;
32786;SDS011;19139;49.372;8.580;2024-02-21T06:29:07;15.50;;;7.00;;
32786;SDS011;19139;49.372;8.580;2024-02-21T06:31:35;12.57;;;6.13;;
32786;SDS011;19139;49.372;8.580;2024-02-21T06:34:02;12.93;;;6.37;;
32786;SDS011;19139;49.372;8.580;2024-02-21T06:36:30;14.93;;;6.37;;
32786;SDS011;19139;49.372;8.580;2024-02-21T06:38:58;16.80;;;6.73;;
32786;SDS011;19139;49.372;8.580;2024-02-21T06:41:25;10.97;;;6.87;;
32786;SDS011;19139;49.372;8.580;2024-02-21T06:43:53;16.27;;;6.77;;
32786;SDS011;19139;49.372;8.580;2024-02-21T06:46:26;17.50;;;6.77;;
32786;SDS011;19139;49.372;8.580;2024-02-21T06:48:55;13.93;;;6.10;;
32786;SDS011;19139;49.372;8.580;2024-02-21T06:51:23;13.07;;;7.30;;
32786;SDS011;19139;49.372;8.580;2024-02-21T06:53:51;16.03;;;8.03;;
32786;SDS011;19139;49.372;8.580;2024-02-21T06:56:18;13.53;;;6.37;;
32786;SDS011;19139;49.372;8.580;2024-02-21T06:58:45;12.40;;;6.07;;
32786;SDS011;19139;49.372;8.580;2024-02-21T07:01:13;14.07;;;7.33;;
32786;SDS011;19139;49.372;8.580;2024-02-21T07:03:40;14.00;;;6.93;;
32786;SDS011;19139;49.372;8.580;2024-02-21T07:06:07;17.40;;;12.73;;
32786;SDS011;19139;49.372;8.580;2024-02-21T07:08:34;18.17;;;14.80;;
32786;SDS011;19139;49.372;8.580;2024-02-21T07:11:01;16.13;;;10.77;;
32786;SDS011;19139;49.372;8.580;2024-02-21T07:13:29;17.60;;;9.53;;
32786;SDS011;19139;49.372;8.580;2024-02-21T07:15:56;16.60;;;7.30;;
32786;SDS011;19139;49.372;8.580;2024-02-21T07:18:23;13.27;;;7.70;;
32786;SDS011;19139;49.372;8.580;2024-02-21T07:20:52;16.10;;;7.43;;
32786;SDS011;19139;49.372;8.580;2024-02-21T07:23:19;13.07;;;7.20;;
32786;SDS011;19139;49.372;8.580;2024-02-21T07:25:46;16.87;;;8.00;;
32786;SDS011;19139;49.372;8.580;2024-02-21T07:28:13;12.23;;;6.20;;
32786;SDS011;19139;49.372;8.580;2024-02-21T07:30:42;18.40;;;7.10;;
32786;SDS011;19139;49.372;8.580;2024-02-21T07:33:10;11.63;;;6.00;;
32786;SDS011;19139;49.372;8.580;2024-02-21T07:35:37;16.00;;;7.30;;
32786;SDS011;19139;49.372;8.580;2024-02-21T07:38:04;10.77;;;5.93;;
32786;SDS011;19139;49.372;8.580;2024-02-21T07:40:32;15.57;;;7.00;;
32786;SDS011;19139;49.372;8.580;2024-02-21T07:42:59;15.27;;;6.57;;
32786;SDS011;19139;49.372;8.580;2024-02-21T07:45:26;11.83;;;6.27;;
32786;SDS011;19139;49.372;8.580;2024-02-21T07:47:53;14.70;;;6.50;;
32786;SDS011;19139;49.372;8.580;2024-02-21T07:50:21;13.10;;;6.37;;
32786;SDS011;19139;49.372;8.580;2024-02-21T07:52:48;16.93;;;6.97;;
32786;SDS011;19139;49.372;8.580;2024-02-21T07:55:15;15.13;;;6.50;;
32786;SDS011;19139;49.372;8.580;2024-02-21T07:57:42;13.57;;;6.37;;
32786;SDS011;19139;49.372;8.580;2024-02-21T08:00:09;10.50;;;6.30;;
32786;SDS011;19139;49.372;8.580;2024-02-21T08:02:43;12.47;;;6.23;;
32786;SDS011;19139;49.372;8.580;2024-02-21T08:05:10;12.80;;;6.47;;
32786;SDS011;19139;49.372;8.580;2024-02-21T08:07:38;13.17;;;6.77;;
32786;SDS011;19139;49.372;8.580;2024-02-21T08:10:06;10.27;;;6.03;;
32786;SDS011;19139;49.372;8.580;2024-02-21T08:12:34;11.30;;;6.23;;
32786;SDS011;19139;49.372;8.580;2024-02-21T08:15:02;11.83;;;6.20;;
32786;SDS011;19139;49.372;8.580;2024-02-21T08:17:30;14.40;;;6.20;;
32786;SDS011;19139;49.372;8.580;2024-02-21T08:19:57;10.63;;;5.93;;
32786;SDS011;19139;49.372;8.580;2024-02-21T08:22:24;10.10;;;6.23;;
32786;SDS011;19139;49.372;8.580;2024-02-21T08:24:52;10.13;;;5.13;;
32786;SDS011;19139;49.372;8.580;2024-02-21T08:27:20;11.00;;;7.07;;
32786;SDS011;19139;49.372;8.580;2024-02-21T08:29:47;12.87;;;6.40;;
32786;SDS011;19139;49.372;8.580;2024-02-21T08:32:14;11.90;;;6.07;;
32786;SDS011;19139;49.372;8.580;2024-02-21T08:34:41;12.07;;;6.47;;
32786;SDS011;19139;49.372;8.580;2024-02-21T08:37:08;9.03;;;6.27;;
32786;SDS011;19139;49.372;8.580;2024-02-21T08:39:37;10.80;;;5.63;;
32786;SDS011;19139;49.372;8.580;2024-02-21T08:42:04;12.80;;;6.10;;
32786;SDS011;19139;49.372;8.580;2024-02-21T08:44:31;10.30;;;6.70;;
32786;SDS011;19139;49.372;8.580;2024-02-21T08:46:58;10.83;;;5.57;;
32786;SDS011;19139;49.372;8.580;2024-02-21T08:49:29;18.33;;;7.30;;
32786;SDS011;19139;49.372;8.580;2024-02-21T08:52:00;11.47;;;5.93;;
32786;SDS011;19139;49.372;8.580;2024-02-21T08:54:28;16.47;;;6.83;;
32786;SDS011;19139;49.372;8.580;2024-02-21T08:56:55;13.00;;;6.90;;
32786;SDS011;19139;49.372;8.580;2024-02-21T08:59:22;10.93;;;5.70;;
32786;SDS011;19139;49.372;8.580;2024-02-21T09:01:50;12.03;;;5.90;;
32786;SDS011;19139;49.372;8.580;2024-02-21T09:04:19;14.20;;;6.03;;
32786;SDS011;19139;49.372;8.580;2024-02-21T09:06:47;12.37;;;5.60;;
32786;SDS011;19139;49.372;8.580;2024-02-21T09:09:14;12.33;;;5.97;;
32786;SDS011;19139;49.372;8.580;2024-02-21T09:11:41;13.03;;;5.83;;
32786;SDS011;19139;49.372;8.580;2024-02-21T09:14:08;13.40;;;5.70;;
32786;SDS011;19139;49.372;8.580;2024-02-21T09:16:35;12.30;;;6.40;;
32786;SDS011;19139;49.372;8.580;2024-02-21T09:19:02;12.83;;;5.67;;
32786;SDS011;19139;49.372;8.580;2024-02-21T09:21:30;9.07;;;5.40;;
32786;SDS011;19139;49.372;8.580;2024-02-21T09:23:57;10.20;;;5.33;;
32786;SDS011;19139;49.372;8.580;2024-02-21T09:26:26;11.53;;;4.83;;
32786;SDS011;19139;49.372;8.580;2024-02-21T09:28:53;9.73;;;4.73;;
32786;SDS011;19139;49.372;8.580;2024-02-21T09:31:20;13.13;;;5.43;;
32786;SDS011;19139;49.372;8.580;2024-02-21T09:33:47;9.87;;;4.80;;
32786;SDS011;19139;49.372;8.580;2024-02-21T09:36:15;13.43;;;5.93;;
32786;SDS011;19139;49.372;8.580;2024-02-21T09:38:42;9.60;;;4.60;;
32786;SDS011;19139;49.372;8.580;2024-02-21T09:41:14;14.40;;;5.50;;
32786;SDS011;19139;49.372;8.580;2024-02-21T09:43:51;11.93;;;5.40;;
32786;SDS011;19139;49.372;8.580;2024-02-21T09:46:22;9.33;;;4.67;;
32786;SDS011;19139;49.372;8.580;2024-02-21T09:49:06;12.27;;;5.27;;
32786;SDS011;19139;49.372;8.580;2024-02-21T09:51:44;9.93;;;5.00;;
32786;SDS011;19139;49.372;8.580;2024-02-21T09:54:12;10.87;;;4.83;;
32786;SDS011;19139;49.372;8.580;2024-02-21T09:56:44;11.13;;;5.03;;
32786;SDS011;19139;49.372;8.580;2024-02-21T09:59:15;14.57;;;5.50;;
32786;SDS011;19139;49.372;8.580;2024-02-21T10:01:43;10.53;;;5.07;;
32786;SDS011;19139;49.372;8.580;2024-02-21T10:04:13;10.20;;;5.27;;
32786;SDS011;19139;49.372;8.580;2024-02-21T10:06:40;13.37;;;5.60;;
32786;SDS011;19139;49.372;8.580;2024-02-21T10:09:08;18.03;;;6.90;;
32786;SDS011;19139;49.372;8.580;2024-02-21T10:11:35;9.93;;;4.40;;
32786;SDS011;19139;49.372;8.580;2024-02-21T10:14:03;14.30;;;5.63;;
32786;SDS011;19139;49.372;8.580;2024-02-21T10:16:31;13.00;;;3.77;;
32786;SDS011;19139;49.372;8.580;2024-02-21T10:18:59;12.07;;;4.57;;
32786;SDS011;19139;49.372;8.580;2024-02-21T10:21:27;11.23;;;4.90;;
32786;SDS011;19139;49.372;8.580;2024-02-21T10:23:54;8.17;;;3.80;;
32786;SDS011;19139;49.372;8.580;2024-02-21T10:26:21;12.53;;;4.87;;
32786;SDS011;19139;49.372;8.580;2024-02-21T10:28:48;10.27;;;3.87;;
32786;SDS011;19139;49.372;8.580;2024-02-21T10:31:22;9.80;;;3.83;;
32786;SDS011;19139;49.372;8.580;2024-02-21T10:33:59;8.63;;;3.53;;
32786;SDS011;19139;49.372;8.580;2024-02-21T10:36:31;7.53;;;4.10;;
32786;SDS011;19139;49.372;8.580;2024-02-21T10:38:59;12.90;;;4.67;;
32786;SDS011;19139;49.372;8.580;2024-02-21T10:41:26;10.30;;;4.50;;
32786;SDS011;19139;49.372;8.580;2024-02-21T10:43:54;8.40;;;3.17;;
32786;SDS011;19139;49.372;8.580;2024-02-21T10:46:22;10.70;;;4.13;;
32786;SDS011;19139;49.372;8.580;2024-02-21T10:49:01;11.13;;;3.60;;
32786;SDS011;19139;49.372;8.580;2024-02-21T10:51:29;7.40;;;3.33;;
32786;SDS011;19139;49.372;8.580;2024-02-21T10:56:29;9.70;;;3.67;;
32786;SDS011;19139;49.372;8.580;2024-02-21T10:59:00;9.53;;;3.90;;
32786;SDS011;19139;49.372;8.580;2024-02-21T11:01:28;11.00;;;3.23;;
32786;SDS011;19139;49.372;8.580;2024-02-21T11:03:58;9.80;;;4.20;;
32786;SDS011;19139;49.372;8.580;2024-02-21T11:06:27;7.10;;;3.53;;
32786;SDS011;19139;49.372;8.580;2024-02-21T11:09:02;7.20;;;3.47;;
32786;SDS011;19139;49.372;8.580;2024-02-21T11:11:29;13.80;;;4.40;;
32786;SDS011;19139;49.372;8.580;2024-02-21T11:16:36;15.87;;;5.17;;
32786;SDS011;19139;49.372;8.580;2024-02-21T11:19:08;11.27;;;4.33;;
32786;SDS011;19139;49.372;8.580;2024-02-21T11:21:38;10.00;;;4.30;;
32786;SDS011;19139;49.372;8.580;2024-02-21T11:24:07;10.90;;;5.20;;
32786;SDS011;19139;49.372;8.580;2024-02-21T11:26:36;11.97;;;3.93;;
32786;SDS011;19139;49.372;8.580;2024-02-21T11:29:03;10.00;;;3.50;;
32786;SDS011;19139;49.372;8.580;2024-02-21T11:31:38;6.77;;;3.43;;
32786;SDS011;19139;49.372;8.580;2024-02-21T11:34:09;11.07;;;4.13;;
32786;SDS011;19139;49.372;8.580;2024-02-21T11:36:46;8.97;;;3.57;;
32786;SDS011;19139;49.372;8.580;2024-02-21T11:39:25;9.20;;;3.43;;
32786;SDS011;19139;49.372;8.580;2024-02-21T11:42:05;8.23;;;3.30;;
32786;SDS011;19139;49.372;8.580;2024-02-21T11:44:34;11.20;;;2.97;;
32786;SDS011;19139;49.372;8.580;2024-02-21T11:47:01;8.30;;;3.07;;
32786;SDS011;19139;49.372;8.580;2024-02-21T11:49:29;9.67;;;3.60;;
32786;SDS011;19139;49.372;8.580;2024-02-21T11:52:03;7.87;;;4.07;;
32786;SDS011;19139;49.372;8.580;2024-02-21T11:54:30;13.60;;;6.30;;
32786;SDS011;19139;49.372;8.580;2024-02-21T11:56:58;9.63;;;3.87;;
32786;SDS011;19139;49.372;8.580;2024-02-21T11:59:25;6.87;;;3.00;;
32786;SDS011;19139;49.372;8.580;2024-02-21T12:01:52;9.43;;;3.20;;
32786;SDS011;19139;49.372;8.580;2024-02-21T12:04:20;8.20;;;3.97;;
32786;SDS011;19139;49.372;8.580;2024-02-21T12:06:48;12.30;;;4.77;;
32786;SDS011;19139;49.372;8.580;2024-02-21T12:09:15;6.90;;;3.50;;
32786;SDS011;19139;49.372;8.580;2024-02-21T12:11:43;9.80;;;2.83;;
32786;SDS011;19139;49.372;8.580;2024-02-21T12:14:10;9.20;;;3.17;;
32786;SDS011;19139;49.372;8.580;2024-02-21T12:16:38;9.27;;;3.47;;
32786;SDS011;19139;49.372;8.580;2024-02-21T12:19:05;10.97;;;3.47;;
32786;SDS011;19139;49.372;8.580;2024-02-21T12:21:33;9.00;;;3.23;;
32786;SDS011;19139;49.372;8.580;2024-02-21T12:24:13;11.27;;;3.60;;
32786;SDS011;19139;49.372;8.580;2024-02-21T12:26:41;9.70;;;3.93;;
32786;SDS011;19139;49.372;8.580;2024-02-21T12:29:08;6.90;;;2.80;;
32786;SDS011;19139;49.372;8.580;2024-02-21T12:31:38;7.93;;;3.67;;
32786;SDS011;19139;49.372;8.580;2024-02-21T12:34:06;9.63;;;2.87;;
32786;SDS011;19139;49.372;8.580;2024-02-21T12:36:36;5.97;;;2.63;;
32786;SDS011;19139;49.372;8.580;2024-02-21T12:39:09;5.03;;;2.73;;
32786;SDS011;19139;49.372;8.580;2024-02-21T12:41:37;7.97;;;3.13;;
32786;SDS011;19139;49.372;8.580;2024-02-21T12:44:05;8.93;;;3.17;;
32786;SDS011;19139;49.372;8.580;2024-02-21T12:46:35;7.70;;;2.77;;
32786;SDS011;19139;49.372;8.580;2024-02-21T12:49:02;9.10;;;3.37;;
32786;SDS011;19139;49.372;8.580;2024-02-21T12:51:33;6.87;;;2.63;;
32786;SDS011;19139;49.372;8.580;2024-02-21T12:54:00;8.43;;;3.13;;
32786;SDS011;19139;49.372;8.580;2024-02-21T12:56:29;8.53;;;3.43;;
32786;SDS011;19139;49.372;8.580;2024-02-21T12:58:57;9.37;;;3.47;;
32786;SDS011;19139;49.372;8.580;2024-02-21T13:01:24;8.23;;;3.27;;
32786;SDS011;19139;49.372;8.580;2024-02-21T13:03:52;8.57;;;3.30;;
32786;SDS011;19139;49.372;8.580;2024-02-21T13:06:20;7.53;;;3.47;;
32786;SDS011;19139;49.372;8.580;2024-02-21T13:08:47;8.17;;;3.33;;
32786;SDS011;19139;49.372;8.580;2024-02-21T13:11:14;5.90;;;2.63;;
32786;SDS011;19139;49.372;8.580;2024-02-21T13:13:41;7.30;;;2.80;;
32786;SDS011;19139;49.372;8.580;2024-02-21T13:16:09;8.50;;;3.00;;
32786;SDS011;19139;49.372;8.580;2024-02-21T13:18:36;9.43;;;3.23;;
32786;SDS011;19139;49.372;8.580;2024-02-21T13:21:09;8.13;;;3.33;;
32786;SDS011;19139;49.372;8.580;2024-02-21T13:23:36;4.83;;;2.60;;
32786;SDS011;19139;49.372;8.580;2024-02-21T13:26:03;8.50;;;2.83;;
32786;SDS011;19139;49.372;8.580;2024-02-21T13:28:30;6.30;;;2.40;;
32786;SDS011;19139;49.372;8.580;2024-02-21T13:30:57;8.00;;;2.37;;
32786;SDS011;19139;49.372;8.580;2024-02-21T13:33:24;12.10;;;3.83;;
32786;SDS011;19139;49.372;8.580;2024-02-21T13:35:52;9.17;;;3.10;;
32786;SDS011;19139;49.372;8.580;2024-02-21T13:38:19;7.33;;;2.70;;
32786;SDS011;19139;49.372;8.580;2024-02-21T13:40:46;8.30;;;3.13;;
32786;SDS011;19139;49.372;8.580;2024-02-21T13:43:13;8.47;;;3.03;;
32786;SDS011;19139;49.372;8.580;2024-02-21T13:45:40;7.37;;;3.13;;
32786;SDS011;19139;49.372;8.580;2024-02-21T13:48:10;12.77;;;4.43;;
32786;SDS011;19139;49.372;8.580;2024-02-21T13:50:38;9.97;;;3.03;;
32786;SDS011;19139;49.372;8.580;2024-02-21T13:53:09;9.77;;;3.23;;
32786;SDS011;19139;49.372;8.580;2024-02-21T13:55:36;13.43;;;4.20;;
32786;SDS011;19139;49.372;8.580;2024-02-21T13:58:03;9.03;;;3.43;;
32786;SDS011;19139;49.372;8.580;2024-02-21T14:00:31;6.60;;;3.13;;
32786;SDS011;19139;49.372;8.580;2024-02-21T14:03:00;9.43;;;3.87;;
32786;SDS011;19139;49.372;8.580;2024-02-21T14:05:27;8.93;;;3.63;;
32786;SDS011;19139;49.372;8.580;2024-02-21T14:07:55;6.33;;;2.73;;
32786;SDS011;19139;49.372;8.580;2024-02-21T14:10:22;7.87;;;3.40;;
32786;SDS011;19139;49.372;8.580;2024-02-21T14:12:49;8.90;;;4.50;;
32786;SDS011;19139;49.372;8.580;2024-02-21T14:15:17;8.03;;;2.80;;
32786;SDS011;19139;49.372;8.580;2024-02-21T14:17:44;10.30;;;6.10;;
32786;SDS011;19139;49.372;8.580;2024-02-21T14:20:11;9.40;;;3.03;;
32786;SDS011;19139;49.372;8.580;2024-02-21T14:22:43;7.63;;;2.93;;
32786;SDS011;19139;49.372;8.580;2024-02-21T14:25:10;8.73;;;4.05;;
32786;SDS011;19139;49.372;8.580;2024-02-21T14:27:38;9.83;;;2.97;;
32786;SDS011;19139;49.372;8.580;2024-02-21T14:30:06;15.53;;;2.80;;
32786;SDS011;19139;49.372;8.580;2024-02-21T14:32:37;8.87;;;3.20;;
32786;SDS011;19139;49.372;8.580;2024-02-21T14:35:04;6.43;;;3.33;;
32786;SDS011;19139;49.372;8.580;2024-02-21T14:37:32;7.70;;;2.70;;
32786;SDS011;19139;49.372;8.580;2024-02-21T14:39:59;3.93;;;2.67;;
32786;SDS011;19139;49.372;8.580;2024-02-21T14:42:27;6.37;;;3.00;;
32786;SDS011;19139;49.372;8.580;2024-02-21T14:44:54;5.87;;;2.30;;
32786;SDS011;19139;49.372;8.580;2024-02-21T14:47:30;4.13;;;2.63;;